Time;durP1;ratioP1;P1;durP2;ratioP2;P2;SDS_P1;SDS_P2;PMS_P1;PMS_P2;Temp;Humidity;BMP_temperature;BMP_pressure;BME280_temperature;BME280_humidity;BME280_pressure;Samples;Min_cycle;Max_cycle;Signal;HPM_P1;HPM_P2
2023/06/19 00:01:41;;;;;;;17.55;7.72;;;;;;;;;;5026454;28;20229;-78
2023/06/19 00:04:06;;;;;;;11.00;7.60;;;;;;;;;;5032504;28;20201;-78
2023/06/19 00:06:31;;;;;;;9.85;8.15;;;;;;;;;;5048035;28;20657;-77
2023/06/19 00:08:56;;;;;;;10.77;7.03;;;;;;;;;;5030661;28;20182;-78
2023/06/19 00:11:21;;;;;;;9.07;7.32;;;;;;;;;;5047670;28;20443;-78
2023/06/19 00:13:47;;;;;;;8.63;7.00;;;;;;;;;;5044674;28;20178;-77
2023/06/19 00:16:12;;;;;;;8.55;7.43;;;;;;;;;;5048090;28;20797;-77
2023/06/19 00:18:39;;;;;;;9.57;6.93;;;;;;;;;;5052071;28;20547;-79
2023/06/19 00:21:05;;;;;;;8.13;5.95;;;;;;;;;;5069974;22;20204;-73
2023/06/19 00:23:30;;;;;;;6.93;5.93;;;;;;;;;;5070246;28;20209;-72
2023/06/19 00:25:56;;;;;;;6.53;5.43;;;;;;;;;;5074215;28;20222;-72
2023/06/19 00:28:21;;;;;;;8.07;5.65;;;;;;;;;;5069720;28;20798;-72
2023/06/19 00:30:46;;;;;;;6.03;5.38;;;;;;;;;;5066504;28;20562;-71
2023/06/19 00:33:11;;;;;;;7.70;5.72;;;;;;;;;;5053426;28;20251;-71
2023/06/19 00:35:37;;;;;;;7.47;5.67;;;;;;;;;;5053340;28;20188;-72
2023/06/19 00:38:02;;;;;;;8.07;6.60;;;;;;;;;;5054479;28;20453;-71
2023/06/19 00:40:28;;;;;;;6.90;5.68;;;;;;;;;;5048700;28;20725;-71
2023/06/19 00:42:53;;;;;;;7.10;5.78;;;;;;;;;;5052837;28;20574;-72
2023/06/19 00:45:18;;;;;;;8.68;5.20;;;;;;;;;;5054015;28;20251;-72
2023/06/19 00:47:44;;;;;;;6.72;5.45;;;;;;;;;;5044697;28;20173;-72
2023/06/19 00:50:10;;;;;;;6.38;4.75;;;;;;;;;;5051839;28;20178;-72
2023/06/19 00:52:35;;;;;;;7.72;5.53;;;;;;;;;;5053772;28;20194;-72
2023/06/19 00:55:00;;;;;;;8.00;5.32;;;;;;;;;;5058073;28;20204;-72
2023/06/19 00:57:26;;;;;;;4.07;3.63;;;;;;;;;;5056017;28;20555;-72
2023/06/19 00:59:52;;;;;;;4.00;2.85;;;;;;;;;;5053258;28;20170;-71
2023/06/19 01:02:23;;;;;;;2.80;2.03;;;;;;;;;;5052855;28;20217;-71
2023/06/19 01:04:48;;;;;;;3.20;1.83;;;;;;;;;;5053654;28;20237;-71
2023/06/19 01:07:15;;;;;;;1.95;1.38;;;;;;;;;;5041581;28;20712;-72
2023/06/19 01:09:46;;;;;;;2.83;2.17;;;;;;;;;;5047640;28;20181;-72
2023/06/19 01:12:19;;;;;;;3.83;2.10;;;;;;;;;;5055238;28;20587;-72
2023/06/19 01:14:53;;;;;;;3.97;2.13;;;;;;;;;;5052360;28;20182;-72
2023/06/19 01:17:18;;;;;;;3.35;2.05;;;;;;;;;;5051699;28;20183;-71
2023/06/19 01:19:44;;;;;;;3.47;2.13;;;;;;;;;;5056081;28;20257;-71
2023/06/19 01:22:09;;;;;;;4.38;2.42;;;;;;;;;;5056039;28;20213;-72
2023/06/19 01:24:34;;;;;;;3.63;2.42;;;;;;;;;;5051156;28;20197;-73
2023/06/19 01:26:59;;;;;;;2.90;2.05;;;;;;;;;;5060551;28;20178;-72
2023/06/19 01:29:25;;;;;;;3.03;2.20;;;;;;;;;;5050270;28;20180;-72
2023/06/19 01:31:53;;;;;;;3.10;2.20;;;;;;;;;;5042442;28;20197;-72
2023/06/19 01:34:19;;;;;;;3.30;1.65;;;;;;;;;;5045371;28;20200;-73
2023/06/19 01:36:45;;;;;;;2.75;2.15;;;;;;;;;;5064488;28;20186;-72
2023/06/19 01:39:11;;;;;;;3.78;2.20;;;;;;;;;;5047220;28;20664;-72
2023/06/19 01:41:37;;;;;;;4.60;2.55;;;;;;;;;;5060094;28;20296;-72
2023/06/19 01:44:02;;;;;;;2.88;2.13;;;;;;;;;;5039977;28;20255;-72
2023/06/19 01:46:27;;;;;;;2.63;2.20;;;;;;;;;;5040373;28;20556;-72
2023/06/19 01:48:53;;;;;;;5.25;2.45;;;;;;;;;;5037824;28;20765;-72
2023/06/19 01:51:18;;;;;;;3.70;2.33;;;;;;;;;;5063728;28;20269;-73
2023/06/19 01:53:44;;;;;;;4.45;2.45;;;;;;;;;;5050911;28;20176;-72
2023/06/19 01:56:09;;;;;;;4.30;2.50;;;;;;;;;;5049923;28;20804;-72
2023/06/19 01:58:34;;;;;;;4.68;2.80;;;;;;;;;;5059644;28;20640;-71
2023/06/19 02:00:59;;;;;;;4.43;3.33;;;;;;;;;;5054196;28;20323;-71
2023/06/19 02:03:25;;;;;;;3.87;2.87;;;;;;;;;;5054676;28;20209;-72
2023/06/19 02:05:50;;;;;;;6.13;3.15;;;;;;;;;;5054258;28;20407;-72
2023/06/19 02:08:15;;;;;;;3.47;3.00;;;;;;;;;;5042124;28;20186;-74
2023/06/19 02:10:40;;;;;;;5.77;2.87;;;;;;;;;;5055546;28;20399;-72
2023/06/19 02:13:06;;;;;;;5.38;2.55;;;;;;;;;;5055477;28;20763;-73
2023/06/19 02:15:31;;;;;;;2.90;2.60;;;;;;;;;;5051789;28;20182;-72
2023/06/19 02:17:56;;;;;;;4.18;3.38;;;;;;;;;;5050081;28;20185;-72
2023/06/19 02:20:24;;;;;;;4.75;3.38;;;;;;;;;;5052189;28;20222;-73
2023/06/19 02:22:49;;;;;;;3.60;3.13;;;;;;;;;;5050605;28;20213;-72
2023/06/19 02:25:14;;;;;;;3.78;3.38;;;;;;;;;;5040907;28;20704;-72
2023/06/19 02:27:39;;;;;;;3.60;3.20;;;;;;;;;;5051739;28;20669;-73
2023/06/19 02:30:05;;;;;;;5.63;3.50;;;;;;;;;;5057538;28;20273;-72
2023/06/19 02:32:30;;;;;;;5.95;3.33;;;;;;;;;;5049046;28;20442;-72
2023/06/19 02:34:56;;;;;;;6.85;3.85;;;;;;;;;;5049792;28;20639;-72
2023/06/19 02:37:21;;;;;;;3.80;3.35;;;;;;;;;;5052862;28;20184;-72
2023/06/19 02:39:46;;;;;;;3.85;3.50;;;;;;;;;;5050288;28;20177;-72
2023/06/19 02:42:11;;;;;;;6.53;3.70;;;;;;;;;;5044971;28;20390;-72
2023/06/19 02:44:36;;;;;;;6.33;3.77;;;;;;;;;;5044443;28;20667;-72
2023/06/19 02:47:01;;;;;;;4.50;3.97;;;;;;;;;;5050561;28;20431;-72
2023/06/19 02:49:27;;;;;;;3.80;3.33;;;;;;;;;;5050028;28;20422;-72
2023/06/19 02:51:52;;;;;;;6.25;4.10;;;;;;;;;;5045749;28;20189;-72
2023/06/19 02:54:17;;;;;;;5.13;4.45;;;;;;;;;;5052961;28;20180;-72
2023/06/19 02:56:42;;;;;;;6.78;4.15;;;;;;;;;;5051234;28;20235;-72
2023/06/19 02:59:07;;;;;;;5.55;4.53;;;;;;;;;;5057625;28;20264;-72
2023/06/19 03:01:33;;;;;;;4.97;4.47;;;;;;;;;;5040422;28;20691;-72
2023/06/19 03:03:59;;;;;;;5.20;4.57;;;;;;;;;;5044517;28;20579;-72
2023/06/19 03:06:25;;;;;;;5.72;4.50;;;;;;;;;;5049295;28;20184;-71
2023/06/19 03:08:51;;;;;;;8.82;4.72;;;;;;;;;;5053200;28;20262;-71
2023/06/19 03:11:16;;;;;;;8.07;5.43;;;;;;;;;;5049130;28;20237;-72
2023/06/19 03:13:48;;;;;;;6.43;5.50;;;;;;;;;;5050327;28;20205;-72
2023/06/19 03:16:14;;;;;;;6.18;5.57;;;;;;;;;;5051716;28;20190;-72
2023/06/19 03:18:39;;;;;;;9.10;6.80;;;;;;;;;;5046394;28;20181;-72
2023/06/19 03:21:05;;;;;;;10.52;7.45;;;;;;;;;;5050629;28;20192;-71
2023/06/19 03:23:30;;;;;;;14.10;7.80;;;;;;;;;;5048878;28;20212;-71
2023/06/19 03:25:57;;;;;;;9.65;7.68;;;;;;;;;;5056205;28;20643;-72
2023/06/19 03:28:22;;;;;;;12.23;9.38;;;;;;;;;;5050485;28;20197;-71
2023/06/19 03:30:47;;;;;;;12.77;9.35;;;;;;;;;;5047843;28;20185;-72
2023/06/19 03:33:12;;;;;;;13.18;9.25;;;;;;;;;;5058188;28;20549;-72
2023/06/19 03:35:37;;;;;;;12.57;9.75;;;;;;;;;;5044116;28;20177;-72
2023/06/19 03:38:02;;;;;;;12.70;9.25;;;;;;;;;;5050675;28;20240;-72
2023/06/19 03:40:28;;;;;;;12.88;10.02;;;;;;;;;;5041081;28;20264;-72
2023/06/19 03:42:54;;;;;;;16.58;11.55;;;;;;;;;;5053882;28;20300;-72
2023/06/19 03:45:19;;;;;;;16.13;11.15;;;;;;;;;;5056022;28;20181;-72
2023/06/19 03:47:44;;;;;;;15.57;11.60;;;;;;;;;;5055036;28;20231;-71
2023/06/19 03:50:09;;;;;;;15.88;11.65;;;;;;;;;;5049391;28;20181;-71
2023/06/19 03:52:35;;;;;;;15.88;11.27;;;;;;;;;;5059922;28;20198;-72
2023/06/19 03:55:01;;;;;;;14.07;10.05;;;;;;;;;;5056845;28;20192;-71
2023/06/19 03:57:26;;;;;;;15.20;11.13;;;;;;;;;;5054481;28;20201;-71
2023/06/19 03:59:53;;;;;;;15.07;11.55;;;;;;;;;;5053529;28;20176;-71
2023/06/19 04:02:18;;;;;;;16.45;11.85;;;;;;;;;;5045305;28;20198;-72
2023/06/19 04:04:44;;;;;;;15.13;11.43;;;;;;;;;;5053877;28;20876;-72
2023/06/19 04:07:09;;;;;;;14.55;11.23;;;;;;;;;;5066223;28;20176;-72
2023/06/19 04:09:34;;;;;;;14.48;10.60;;;;;;;;;;5056003;28;20588;-72
2023/06/19 04:11:59;;;;;;;12.68;9.50;;;;;;;;;;5052855;28;20254;-71
2023/06/19 04:14:24;;;;;;;14.48;10.45;;;;;;;;;;5051204;28;20248;-71
2023/06/19 04:16:50;;;;;;;9.85;7.63;;;;;;;;;;5060736;28;20196;-72
2023/06/19 04:19:15;;;;;;;8.85;6.15;;;;;;;;;;5047850;28;20544;-72
2023/06/19 04:21:40;;;;;;;6.60;3.80;;;;;;;;;;5057344;28;20291;-72
2023/06/19 04:24:08;;;;;;;6.05;4.55;;;;;;;;;;5055811;28;20251;-72
2023/06/19 04:26:34;;;;;;;3.80;3.25;;;;;;;;;;5053328;28;20588;-72
2023/06/19 04:29:00;;;;;;;3.25;2.42;;;;;;;;;;5051878;28;20185;-72
2023/06/19 04:31:26;;;;;;;3.75;2.15;;;;;;;;;;5057301;28;20199;-71
2023/06/19 04:33:52;;;;;;;2.97;2.10;;;;;;;;;;5056154;28;20603;-72
2023/06/19 04:36:17;;;;;;;4.75;2.10;;;;;;;;;;5057639;28;20545;-72
2023/06/19 04:38:43;;;;;;;3.28;2.30;;;;;;;;;;5056946;28;20178;-71
2023/06/19 04:41:09;;;;;;;2.75;2.08;;;;;;;;;;5039445;28;20193;-72
2023/06/19 04:43:34;;;;;;;2.65;2.05;;;;;;;;;;5051171;28;20741;-71
2023/06/19 04:45:59;;;;;;;3.22;1.67;;;;;;;;;;5055190;28;20174;-71
2023/06/19 04:48:25;;;;;;;3.00;1.92;;;;;;;;;;5056862;28;20181;-71
2023/06/19 04:50:51;;;;;;;1.85;1.67;;;;;;;;;;5057831;28;20531;-71
2023/06/19 04:53:16;;;;;;;3.13;2.38;;;;;;;;;;5067708;28;20176;-72
2023/06/19 04:55:43;;;;;;;4.75;3.65;;;;;;;;;;5056506;28;20174;-72
2023/06/19 04:58:08;;;;;;;5.00;3.78;;;;;;;;;;5049378;28;20273;-72
2023/06/19 05:00:33;;;;;;;4.72;3.97;;;;;;;;;;5050217;28;20659;-72
2023/06/19 05:03:00;;;;;;;5.53;4.78;;;;;;;;;;5053401;28;20873;-72
2023/06/19 05:05:26;;;;;;;5.55;3.80;;;;;;;;;;5055585;28;20667;-71
2023/06/19 05:07:52;;;;;;;4.55;3.85;;;;;;;;;;5051515;28;20583;-72
2023/06/19 05:10:17;;;;;;;6.97;4.60;;;;;;;;;;5058706;28;20177;-72
2023/06/19 05:12:42;;;;;;;7.35;4.63;;;;;;;;;;5050961;28;20255;-72
2023/06/19 05:15:08;;;;;;;7.88;5.55;;;;;;;;;;5050613;28;20209;-72
2023/06/19 05:17:33;;;;;;;7.78;5.75;;;;;;;;;;5046931;28;20610;-72
2023/06/19 05:19:58;;;;;;;8.02;6.15;;;;;;;;;;5050628;28;20178;-72
2023/06/19 05:22:24;;;;;;;7.90;5.45;;;;;;;;;;5050617;28;20296;-71
2023/06/19 05:24:49;;;;;;;9.15;5.03;;;;;;;;;;5050509;28;20210;-72
2023/06/19 05:27:14;;;;;;;12.55;6.93;;;;;;;;;;5052350;28;20228;-71
2023/06/19 05:29:39;;;;;;;7.18;5.38;;;;;;;;;;5048672;28;20639;-71
2023/06/19 05:32:05;;;;;;;7.50;5.65;;;;;;;;;;5062553;28;20197;-71
2023/06/19 05:34:30;;;;;;;5.55;4.05;;;;;;;;;;5043278;28;20224;-71
2023/06/19 05:36:55;;;;;;;5.47;4.53;;;;;;;;;;5050821;28;20563;-71
2023/06/19 05:39:20;;;;;;;7.82;4.60;;;;;;;;;;5056061;28;20170;-72
2023/06/19 05:41:45;;;;;;;5.90;4.78;;;;;;;;;;5046617;28;20259;-72
2023/06/19 05:44:14;;;;;;;6.03;4.53;;;;;;;;;;5054876;28;20211;-71
2023/06/19 05:46:40;;;;;;;9.40;4.60;;;;;;;;;;5055114;28;20169;-72
2023/06/19 05:49:05;;;;;;;6.28;4.28;;;;;;;;;;5050909;28;20738;-72
2023/06/19 05:51:30;;;;;;;5.47;4.05;;;;;;;;;;5057251;28;20243;-71
2023/06/19 05:54:00;;;;;;;6.78;3.90;;;;;;;;;;5057044;28;20185;-72
2023/06/19 05:56:26;;;;;;;5.15;4.00;;;;;;;;;;5048519;28;20201;-72
2023/06/19 05:58:51;;;;;;;5.95;4.47;;;;;;;;;;5050837;28;20252;-73
2023/06/19 06:01:17;;;;;;;8.50;4.72;;;;;;;;;;5039840;28;20250;-72
2023/06/19 06:03:43;;;;;;;5.30;4.10;;;;;;;;;;5054580;28;20209;-72
2023/06/19 06:06:08;;;;;;;5.50;4.57;;;;;;;;;;5035816;28;20843;-72
2023/06/19 06:08:34;;;;;;;5.68;4.63;;;;;;;;;;5050790;28;20185;-72
2023/06/19 06:10:59;;;;;;;6.10;4.50;;;;;;;;;;5041142;28;20193;-73
2023/06/19 06:13:24;;;;;;;6.72;4.78;;;;;;;;;;5046467;28;20239;-72
2023/06/19 06:15:50;;;;;;;8.32;6.05;;;;;;;;;;5033858;28;20232;-72
2023/06/19 06:18:15;;;;;;;9.18;6.50;;;;;;;;;;5044751;28;20181;-72
2023/06/19 06:20:41;;;;;;;7.65;6.55;;;;;;;;;;5048694;28;20221;-71
2023/06/19 06:23:06;;;;;;;9.73;6.03;;;;;;;;;;5056097;28;20216;-72
2023/06/19 06:25:31;;;;;;;10.88;7.65;;;;;;;;;;5058066;28;20178;-71
2023/06/19 06:27:56;;;;;;;11.15;8.35;;;;;;;;;;5049490;28;20173;-72
2023/06/19 06:30:22;;;;;;;12.38;8.00;;;;;;;;;;5048832;28;20188;-71
2023/06/19 06:32:48;;;;;;;13.23;9.68;;;;;;;;;;5029876;28;20644;-71
2023/06/19 06:35:13;;;;;;;14.80;9.18;;;;;;;;;;5048363;28;20269;-71
2023/06/19 06:37:38;;;;;;;11.13;8.75;;;;;;;;;;5050029;28;20177;-72
2023/06/19 06:40:08;;;;;;;14.50;10.70;;;;;;;;;;5047136;28;20177;-71
2023/06/19 06:42:33;;;;;;;16.15;10.23;;;;;;;;;;5052721;28;20584;-73
2023/06/19 06:44:59;;;;;;;14.73;10.73;;;;;;;;;;5046314;28;20201;-72
2023/06/19 06:47:24;;;;;;;18.35;10.85;;;;;;;;;;5042808;28;20423;-71
2023/06/19 06:49:49;;;;;;;13.68;10.40;;;;;;;;;;5050100;28;20205;-72
2023/06/19 06:52:14;;;;;;;14.30;9.63;;;;;;;;;;5060208;28;20693;-71
2023/06/19 06:54:40;;;;;;;14.82;9.82;;;;;;;;;;5060966;28;20238;-72
2023/06/19 06:57:05;;;;;;;12.50;8.68;;;;;;;;;;5046680;28;20659;-72
2023/06/19 06:59:30;;;;;;;12.27;7.40;;;;;;;;;;5050092;28;20182;-72
2023/06/19 07:01:58;;;;;;;8.52;6.22;;;;;;;;;;5039355;28;20251;-72
2023/06/19 07:04:23;;;;;;;9.15;6.07;;;;;;;;;;5057112;28;20236;-72
2023/06/19 07:06:49;;;;;;;12.52;7.85;;;;;;;;;;5052009;28;20607;-72
2023/06/19 07:09:15;;;;;;;10.63;7.50;;;;;;;;;;5052764;28;20787;-72
2023/06/19 07:11:40;;;;;;;11.50;8.25;;;;;;;;;;5050791;28;20209;-71
2023/06/19 07:14:05;;;;;;;12.50;8.52;;;;;;;;;;5057672;28;20536;-71
2023/06/19 07:16:30;;;;;;;17.67;12.73;;;;;;;;;;5045373;28;20560;-72
2023/06/19 07:18:55;;;;;;;16.52;12.25;;;;;;;;;;5051249;28;20682;-72
2023/06/19 07:21:21;;;;;;;16.55;12.30;;;;;;;;;;5048648;28;20290;-72
2023/06/19 07:23:47;;;;;;;17.27;11.10;;;;;;;;;;5055055;28;20253;-73
2023/06/19 07:26:13;;;;;;;15.90;12.38;;;;;;;;;;5048313;28;20193;-73
2023/06/19 07:28:39;;;;;;;20.23;12.20;;;;;;;;;;5055120;28;20647;-72
2023/06/19 07:31:04;;;;;;;14.93;11.27;;;;;;;;;;5043603;28;20255;-72
2023/06/19 07:33:29;;;;;;;14.68;11.32;;;;;;;;;;5067863;28;20192;-73
2023/06/19 07:35:55;;;;;;;18.52;12.77;;;;;;;;;;5060326;28;20181;-73
2023/06/19 07:38:20;;;;;;;14.82;11.05;;;;;;;;;;5060200;28;20200;-72
2023/06/19 07:40:45;;;;;;;18.10;11.90;;;;;;;;;;5045114;28;20178;-72
2023/06/19 07:43:10;;;;;;;14.77;11.57;;;;;;;;;;5060973;28;20442;-74
2023/06/19 07:45:36;;;;;;;15.70;11.27;;;;;;;;;;5062205;28;20170;-73
2023/06/19 07:48:01;;;;;;;15.20;10.63;;;;;;;;;;5061353;28;20227;-72
2023/06/19 07:50:26;;;;;;;16.10;11.77;;;;;;;;;;5045059;28;20786;-73
2023/06/19 07:52:52;;;;;;;16.23;11.57;;;;;;;;;;5063851;28;20196;-73
2023/06/19 07:55:17;;;;;;;14.97;11.50;;;;;;;;;;5061443;28;20169;-72
2023/06/19 07:57:42;;;;;;;17.67;11.83;;;;;;;;;;5056152;28;20403;-73
2023/06/19 08:00:10;;;;;;;20.73;13.67;;;;;;;;;;5035923;28;20426;-73
2023/06/19 08:02:36;;;;;;;16.00;12.55;;;;;;;;;;5048005;28;20426;-74
2023/06/19 08:05:01;;;;;;;15.50;11.55;;;;;;;;;;5061172;28;20220;-73
2023/06/19 08:07:26;;;;;;;16.85;11.80;;;;;;;;;;5063563;28;20268;-72
2023/06/19 08:09:52;;;;;;;18.20;11.67;;;;;;;;;;5045900;28;20223;-73
2023/06/19 08:12:17;;;;;;;17.37;11.80;;;;;;;;;;5052268;28;20430;-74
2023/06/19 08:14:42;;;;;;;17.90;11.30;;;;;;;;;;5046792;28;20422;-72
2023/06/19 08:17:07;;;;;;;15.93;10.95;;;;;;;;;;5038202;28;20422;-72
2023/06/19 08:19:33;;;;;;;15.63;10.90;;;;;;;;;;5046258;28;20564;-72
2023/06/19 08:21:58;;;;;;;19.40;11.23;;;;;;;;;;5052863;28;20213;-72
2023/06/19 08:24:24;;;;;;;15.40;11.38;;;;;;;;;;5058322;28;20231;-72
2023/06/19 08:26:50;;;;;;;15.63;11.00;;;;;;;;;;5062311;28;20200;-72
2023/06/19 08:29:16;;;;;;;20.48;11.65;;;;;;;;;;5050850;28;20186;-71
2023/06/19 08:31:41;;;;;;;19.25;12.90;;;;;;;;;;5055773;28;20205;-72
2023/06/19 08:34:09;;;;;;;17.27;12.63;;;;;;;;;;5059866;28;20270;-72
2023/06/19 08:36:34;;;;;;;21.10;13.18;;;;;;;;;;5043298;28;20426;-73
2023/06/19 08:38:59;;;;;;;17.60;12.25;;;;;;;;;;5042675;28;20201;-71
2023/06/19 08:41:25;;;;;;;17.27;11.90;;;;;;;;;;5049185;28;20201;-72
2023/06/19 08:43:50;;;;;;;18.10;12.73;;;;;;;;;;5067355;28;20205;-72
2023/06/19 08:46:17;;;;;;;21.15;12.27;;;;;;;;;;5067246;28;20185;-72
2023/06/19 08:48:43;;;;;;;18.73;12.23;;;;;;;;;;5050412;28;20180;-72
2023/06/19 08:51:09;;;;;;;18.05;13.30;;;;;;;;;;5058299;28;20197;-73
2023/06/19 08:53:36;;;;;;;20.63;14.30;;;;;;;;;;5070936;28;20176;-73
2023/06/19 08:56:02;;;;;;;17.17;12.23;;;;;;;;;;5057522;28;20182;-73
2023/06/19 08:58:27;;;;;;;17.25;11.70;;;;;;;;;;5055163;28;20174;-72
2023/06/19 09:00:52;;;;;;;18.73;11.87;;;;;;;;;;5053139;28;20319;-74
2023/06/19 09:03:21;;;;;;;19.50;12.32;;;;;;;;;;5050628;28;20486;-73
2023/06/19 09:05:49;;;;;;;16.98;12.30;;;;;;;;;;5053741;28;20182;-72
2023/06/19 09:08:15;;;;;;;15.93;11.45;;;;;;;;;;5057637;28;20666;-73
2023/06/19 09:10:41;;;;;;;15.77;12.32;;;;;;;;;;5056717;28;20173;-73
2023/06/19 09:13:07;;;;;;;16.42;11.65;;;;;;;;;;5059984;28;20248;-73
2023/06/19 09:15:33;;;;;;;17.83;11.35;;;;;;;;;;5049378;28;20603;-72
2023/06/19 09:17:59;;;;;;;14.93;10.70;;;;;;;;;;5046771;28;20189;-73
2023/06/19 09:20:28;;;;;;;19.10;11.75;;;;;;;;;;5042114;28;20179;-74
2023/06/19 09:22:55;;;;;;;16.55;10.35;;;;;;;;;;5051559;28;20202;-73
2023/06/19 09:25:20;;;;;;;14.77;10.48;;;;;;;;;;5049563;28;20456;-73
2023/06/19 09:27:45;;;;;;;16.15;11.20;;;;;;;;;;5060895;28;20693;-72
2023/06/19 09:30:14;;;;;;;17.73;12.10;;;;;;;;;;5064403;28;20184;-73
2023/06/19 09:32:39;;;;;;;16.73;10.30;;;;;;;;;;5053353;28;20508;-72
2023/06/19 09:35:05;;;;;;;17.70;11.90;;;;;;;;;;5062234;28;20611;-73
2023/06/19 09:37:30;;;;;;;15.40;10.95;;;;;;;;;;5065306;28;20420;-73
2023/06/19 09:40:13;;;;;;;15.38;12.15;;;;;;;;;;5063927;28;20193;-72
2023/06/19 09:42:40;;;;;;;19.80;12.00;;;;;;;;;;5051529;28;20673;-73
2023/06/19 09:45:06;;;;;;;16.15;12.13;;;;;;;;;;5061291;28;20287;-72
2023/06/19 09:47:35;;;;;;;14.63;11.52;;;;;;;;;;5069453;28;20226;-72
2023/06/19 09:50:00;;;;;;;17.30;12.35;;;;;;;;;;5064679;28;20176;-73
2023/06/19 09:52:27;;;;;;;14.75;11.23;;;;;;;;;;5051762;28;20190;-72
2023/06/19 09:54:53;;;;;;;17.52;11.60;;;;;;;;;;5058754;28;20208;-73
2023/06/19 09:57:19;;;;;;;15.48;10.18;;;;;;;;;;5055439;28;20235;-73
2023/06/19 09:59:49;;;;;;;13.85;10.40;;;;;;;;;;5058184;28;20181;-73
2023/06/19 10:02:15;;;;;;;12.35;9.35;;;;;;;;;;5052578;28;20202;-73
2023/06/19 10:04:47;;;;;;;16.48;10.05;;;;;;;;;;5057040;28;20196;-73
2023/06/19 10:07:19;;;;;;;14.18;9.93;;;;;;;;;;5062289;28;20224;-72
2023/06/19 10:10:05;;;;;;;11.80;9.10;;;;;;;;;;5061259;28;20173;-73
2023/06/19 10:12:41;;;;;;;17.52;11.18;;;;;;;;;;5050238;28;20683;-71
2023/06/19 10:15:09;;;;;;;13.82;9.77;;;;;;;;;;5050682;28;20677;-72
2023/06/19 10:17:34;;;;;;;15.35;10.30;;;;;;;;;;5056761;28;20177;-71
2023/06/19 10:20:00;;;;;;;12.43;9.68;;;;;;;;;;5062398;28;20280;-72
2023/06/19 10:22:29;;;;;;;14.05;10.20;;;;;;;;;;5046518;28;20213;-72
2023/06/19 10:24:55;;;;;;;15.23;10.80;;;;;;;;;;5051456;28;20236;-72
2023/06/19 10:27:20;;;;;;;13.80;10.93;;;;;;;;;;5063594;28;20540;-72
2023/06/19 10:29:51;;;;;;;14.15;11.65;;;;;;;;;;5058079;28;20410;-72
2023/06/19 10:32:16;;;;;;;15.05;10.73;;;;;;;;;;5054727;28;20217;-72
2023/06/19 10:34:44;;;;;;;12.77;10.65;;;;;;;;;;5047874;28;20182;-72
2023/06/19 10:37:10;;;;;;;11.00;8.75;;;;;;;;;;5050939;28;20177;-74
2023/06/19 10:39:35;;;;;;;14.77;10.53;;;;;;;;;;5050067;28;20262;-72
2023/06/19 10:42:00;;;;;;;19.33;11.20;;;;;;;;;;5055972;28;20530;-72
2023/06/19 10:44:26;;;;;;;11.45;9.48;;;;;;;;;;5052384;28;20469;-72
2023/06/19 10:46:52;;;;;;;13.05;9.82;;;;;;;;;;5037349;28;20177;-71
2023/06/19 10:49:17;;;;;;;13.27;10.00;;;;;;;;;;5052917;28;20647;-70
2023/06/19 10:51:43;;;;;;;15.23;9.87;;;;;;;;;;5054186;28;20321;-71
2023/06/19 10:54:09;;;;;;;14.52;9.63;;;;;;;;;;5054700;28;20407;-71
2023/06/19 10:56:34;;;;;;;12.60;10.23;;;;;;;;;;5059653;28;20554;-70
2023/06/19 10:59:00;;;;;;;12.07;10.52;;;;;;;;;;5057641;28;20181;-70
2023/06/19 11:01:35;;;;;;;12.73;11.00;;;;;;;;;;5065268;28;20228;-72
2023/06/19 11:04:08;;;;;;;13.25;11.00;;;;;;;;;;5051488;28;20200;-70
2023/06/19 11:06:33;;;;;;;13.10;10.40;;;;;;;;;;5062519;28;20161;-71
2023/06/19 11:09:00;;;;;;;14.40;10.90;;;;;;;;;;5059612;28;20180;-70
2023/06/19 11:11:34;;;;;;;13.52;10.32;;;;;;;;;;5061918;28;20201;-70
2023/06/19 11:13:59;;;;;;;13.60;10.75;;;;;;;;;;5051021;28;20188;-70
2023/06/19 11:16:25;;;;;;;12.80;9.73;;;;;;;;;;5058806;28;20184;-70
2023/06/19 11:18:55;;;;;;;11.27;9.60;;;;;;;;;;5058887;28;20406;-71
2023/06/19 11:21:20;;;;;;;15.20;9.68;;;;;;;;;;5061274;28;20281;-70
2023/06/19 11:23:47;;;;;;;12.60;9.23;;;;;;;;;;5050669;28;20201;-71
2023/06/19 11:26:12;;;;;;;12.45;8.98;;;;;;;;;;5063667;28;20399;-71
2023/06/19 11:28:37;;;;;;;12.13;9.35;;;;;;;;;;5063401;28;20172;-71
2023/06/19 11:31:03;;;;;;;10.53;9.33;;;;;;;;;;5063397;28;20193;-71
2023/06/19 11:33:29;;;;;;;10.77;9.32;;;;;;;;;;5049928;28;20655;-70
2023/06/19 11:35:57;;;;;;;11.02;9.02;;;;;;;;;;5060374;28;20169;-71
2023/06/19 11:38:24;;;;;;;12.38;10.57;;;;;;;;;;5059628;28;20174;-71
2023/06/19 11:40:49;;;;;;;12.25;9.60;;;;;;;;;;5053555;28;20166;-71
2023/06/19 11:43:27;;;;;;;12.07;8.77;;;;;;;;;;5048196;28;20201;-70
2023/06/19 11:45:53;;;;;;;10.20;7.85;;;;;;;;;;5048867;28;20327;-70
2023/06/19 11:48:22;;;;;;;11.90;8.63;;;;;;;;;;5048594;28;20650;-70
2023/06/19 11:50:47;;;;;;;10.13;8.60;;;;;;;;;;5059934;28;20640;-70
2023/06/19 11:53:13;;;;;;;10.97;9.70;;;;;;;;;;5047445;28;20184;-70
2023/06/19 11:55:38;;;;;;;11.88;8.77;;;;;;;;;;5057770;28;20172;-71
2023/06/19 11:58:03;;;;;;;9.50;7.78;;;;;;;;;;5066662;28;20173;-72
2023/06/19 12:00:29;;;;;;;11.40;8.10;;;;;;;;;;5060905;28;20208;-72
2023/06/19 12:02:56;;;;;;;10.45;8.07;;;;;;;;;;5051676;28;20197;-71
2023/06/19 12:05:22;;;;;;;10.73;7.78;;;;;;;;;;5050720;28;20261;-71
2023/06/19 12:07:47;;;;;;;9.40;8.00;;;;;;;;;;5063878;28;20176;-71
2023/06/19 12:10:12;;;;;;;8.82;6.93;;;;;;;;;;5054082;28;20460;-69
2023/06/19 12:12:38;;;;;;;10.82;8.27;;;;;;;;;;5049451;28;20248;-69
2023/06/19 12:15:04;;;;;;;9.25;7.00;;;;;;;;;;5064604;28;20177;-70
2023/06/19 12:17:29;;;;;;;12.50;7.70;;;;;;;;;;5060640;28;20177;-72
2023/06/19 12:19:55;;;;;;;8.55;6.55;;;;;;;;;;5062765;28;21076;-71
2023/06/19 12:22:20;;;;;;;8.50;6.07;;;;;;;;;;5056405;22;20226;-81
2023/06/19 12:24:45;;;;;;;8.68;7.18;;;;;;;;;;5063605;28;20236;-80
2023/06/19 12:27:10;;;;;;;9.90;7.60;;;;;;;;;;5060111;28;20182;-80
2023/06/19 12:29:35;;;;;;;9.43;7.00;;;;;;;;;;5061080;28;20790;-80
2023/06/19 12:32:02;;;;;;;10.17;7.07;;;;;;;;;;5051555;28;20458;-82
2023/06/19 12:34:28;;;;;;;8.95;6.97;;;;;;;;;;5058650;28;20402;-81
2023/06/19 12:36:54;;;;;;;9.13;7.05;;;;;;;;;;5060671;28;20635;-81
2023/06/19 12:39:19;;;;;;;7.65;6.55;;;;;;;;;;5065246;28;20165;-81
2023/06/19 12:41:44;;;;;;;8.15;7.03;;;;;;;;;;5050932;28;20747;-78
2023/06/19 12:44:10;;;;;;;8.93;6.80;;;;;;;;;;5039978;28;20196;-81
2023/06/19 12:46:35;;;;;;;9.25;6.03;;;;;;;;;;5063852;28;20458;-82
2023/06/19 12:49:00;;;;;;;6.73;5.77;;;;;;;;;;5058461;28;20683;-81
2023/06/19 12:51:25;;;;;;;10.07;6.70;;;;;;;;;;5034027;28;20433;-80
2023/06/19 12:53:50;;;;;;;6.67;5.57;;;;;;;;;;5052378;28;20786;-81
2023/06/19 12:56:16;;;;;;;12.67;6.30;;;;;;;;;;5061071;28;20417;-80
2023/06/19 12:58:41;;;;;;;8.47;5.80;;;;;;;;;;5067464;28;20173;-81
2023/06/19 13:01:06;;;;;;;9.60;6.13;;;;;;;;;;5056603;28;20501;-80
2023/06/19 13:03:31;;;;;;;6.70;5.60;;;;;;;;;;5038601;28;20714;-77
2023/06/19 13:05:56;;;;;;;10.23;7.23;;;;;;;;;;5050725;28;20798;-79
2023/06/19 13:08:22;;;;;;;7.03;5.80;;;;;;;;;;5032177;28;20943;-81
2023/06/19 13:10:47;;;;;;;9.93;6.77;;;;;;;;;;5058109;28;20429;-79
2023/06/19 13:13:13;;;;;;;8.00;5.47;;;;;;;;;;5035861;28;20443;-79
2023/06/19 13:15:38;;;;;;;7.05;4.93;;;;;;;;;;5033287;28;20173;-80
2023/06/19 13:18:03;;;;;;;9.00;6.15;;;;;;;;;;5043112;28;20209;-79
2023/06/19 13:20:28;;;;;;;7.50;6.23;;;;;;;;;;5031355;28;20186;-80
2023/06/19 13:22:54;;;;;;;7.00;4.77;;;;;;;;;;5034099;28;20451;-80
2023/06/19 13:25:19;;;;;;;9.27;6.27;;;;;;;;;;5058204;28;20493;-78
2023/06/19 13:27:45;;;;;;;8.18;5.47;;;;;;;;;;5039289;28;20431;-80
2023/06/19 13:30:10;;;;;;;9.35;6.38;;;;;;;;;;5039460;28;20177;-80
2023/06/19 13:32:36;;;;;;;7.65;6.07;;;;;;;;;;5047185;28;20222;-80
2023/06/19 13:35:01;;;;;;;9.07;5.25;;;;;;;;;;5030727;28;20743;-81
2023/06/19 13:37:26;;;;;;;6.73;5.70;;;;;;;;;;5032487;28;20186;-79
2023/06/19 13:39:51;;;;;;;7.35;4.82;;;;;;;;;;5053654;28;20958;-81
2023/06/19 13:42:17;;;;;;;12.80;5.97;;;;;;;;;;5037037;28;20576;-79
2023/06/19 13:44:42;;;;;;;8.90;4.97;;;;;;;;;;5053292;28;20228;-80
2023/06/19 13:47:07;;;;;;;8.15;5.93;;;;;;;;;;5052973;28;20936;-80
2023/06/19 13:49:32;;;;;;;7.45;6.15;;;;;;;;;;5039376;28;20264;-80
2023/06/19 13:51:57;;;;;;;6.57;5.30;;;;;;;;;;5054059;28;20580;-81
2023/06/19 13:54:23;;;;;;;7.87;5.27;;;;;;;;;;5050112;28;20420;-82
2023/06/19 13:56:48;;;;;;;8.80;6.63;;;;;;;;;;5056735;28;20403;-78
2023/06/19 13:59:14;;;;;;;6.85;5.55;;;;;;;;;;5038089;28;20181;-82
2023/06/19 14:01:40;;;;;;;9.02;4.78;;;;;;;;;;5026352;28;20197;-81
2023/06/19 14:04:05;;;;;;;5.97;4.97;;;;;;;;;;5022228;28;20244;-82
2023/06/19 14:06:30;;;;;;;8.63;5.30;;;;;;;;;;5040118;28;20174;-79
2023/06/19 14:08:55;;;;;;;7.57;5.80;;;;;;;;;;5026694;28;20420;-81
2023/06/19 14:11:20;;;;;;;6.37;5.20;;;;;;;;;;5024503;28;20174;-81
2023/06/19 14:13:46;;;;;;;9.23;5.07;;;;;;;;;;5038600;28;20517;-80
2023/06/19 14:16:11;;;;;;;6.97;5.27;;;;;;;;;;5052761;28;20763;-80
2023/06/19 14:18:37;;;;;;;7.00;4.47;;;;;;;;;;5034678;28;20194;-79
2023/06/19 14:21:02;;;;;;;6.80;5.32;;;;;;;;;;5048096;28;20188;-81
2023/06/19 14:23:28;;;;;;;6.43;5.00;;;;;;;;;;5026941;28;20600;-80
2023/06/19 14:25:53;;;;;;;9.70;5.60;;;;;;;;;;5055461;28;20177;-80